Time;durP1;ratioP1;P1;durP2;ratioP2;P2;SDS_P1;SDS_P2;PMS_P1;PMS_P2;Temp;Humidity;BMP_temperature;BMP_pressure;BME280_temperature;BME280_humidity;BME280_pressure;Samples;Min_cycle;Max_cycle;Signal;HPM_P1;HPM_P2
2024/01/13 00:01:22;;;;;;;;;;;;;;;1.39;94.82;102552.44;5049012;28;19932;-63
2024/01/13 00:03:49;;;;;;;;;;;;;;;1.65;94.69;102541.56;5043956;28;20023;-64
2024/01/13 00:06:17;;;;;;;;;;;;;;;1.94;93.91;102546.53;5050225;28;19948;-63
2024/01/13 00:08:48;;;;;;;;;;;;;;;1.91;92.71;102534.22;5031831;28;19943;-63
2024/01/13 00:11:15;;;;;;;;;;;;;;;2.07;91.56;102528.34;5053438;28;19932;-62
2024/01/13 00:13:43;;;;;;;;;;;;;;;2.05;91.24;102533.16;5046712;28;19971;-64
2024/01/13 00:16:10;;;;;;;;;;;;;;;1.80;90.69;102526.72;5041944;28;19929;-65
2024/01/13 00:18:37;;;;;;;;;;;;;;;1.75;91.30;102529.22;5044097;28;20314;-65
2024/01/13 00:21:07;;;;;;;;;;;;;;;1.92;91.26;102519.56;5047195;28;19929;-63
2024/01/13 00:23:36;;;;;;;;;;;;;;;1.85;90.79;102518.75;5031552;28;20404;-63
2024/01/13 00:26:04;;;;;;;;;;;;;;;1.78;91.33;102512.50;5040123;28;19967;-63
2024/01/13 00:28:32;;;;;;;;;;;;;;;1.62;91.88;102510.22;5041047;28;19929;-62
2024/01/13 00:31:04;;;;;;;;;;;;;;;1.62;92.80;102507.50;5038166;28;20066;-62
2024/01/13 00:33:32;;;;;;;;;;;;;;;1.42;92.92;102503.13;5041878;28;19935;-62
2024/01/13 00:36:00;;;;;;;;;;;;;;;1.21;94.45;102500.63;5045901;28;19925;-63
2024/01/13 00:38:27;;;;;;;;;;;;;;;1.57;95.09;102496.44;5041894;28;19936;-64
2024/01/13 00:41:06;;;;;;;;;;;;;;;1.65;93.61;102496.22;5033671;28;19948;-63
2024/01/13 00:43:35;;;;;;;;;;;;;;;1.37;93.28;102505.66;5034964;28;19929;-69
2024/01/13 00:46:02;;;;;;;;;;;;;;;1.37;93.72;102498.34;5053097;28;20561;-63
2024/01/13 00:48:30;;;;;;;;;;;;;;;1.29;94.26;102498.53;5043395;28;19933;-65
2024/01/13 00:51:07;;;;;;;;;;;;;;;1.44;95.34;102493.75;5048565;28;19928;-64
2024/01/13 00:53:35;;;;;;;;;;;;;;;1.69;94.13;102489.31;5059294;28;19939;-64
2024/01/13 00:56:03;;;;;;;;;;;;;;;1.81;93.35;102490.38;5055078;28;20364;-63
2024/01/13 00:58:30;;;;;;;;;;;;;;;1.98;92.69;102498.88;5048619;28;19929;-64
2024/01/13 01:01:10;;;;;;;;;;;;;;;1.62;93.06;102493.91;5048188;28;19928;-62
2024/01/13 01:03:37;;;;;;;;;;;;;;;1.76;92.99;102498.28;5047063;28;19929;-64
2024/01/13 01:06:05;;;;;;;;;;;;;;;2.05;92.46;102505.13;5049080;28;19929;-63
2024/01/13 01:08:32;;;;;;;;;;;;;;;2.10;91.78;102505.31;5049110;28;19929;-63
2024/01/13 01:11:09;;;;;;;;;;;;;;;2.28;90.60;102497.31;5045309;28;19935;-63
2024/01/13 01:13:38;;;;;;;;;;;;;;;2.09;89.99;102496.31;5048541;28;19939;-64
2024/01/13 01:16:05;;;;;;;;;;;;;;;2.23;90.09;102489.78;5054161;28;19928;-63
2024/01/13 01:18:33;;;;;;;;;;;;;;;2.13;90.19;102488.56;5052380;28;19935;-62
2024/01/13 01:21:14;;;;;;;;;;;;;;;2.05;90.63;102491.53;5058161;28;19928;-63
2024/01/13 01:23:45;;;;;;;;;;;;;;;2.03;90.61;102489.03;5066740;28;19965;-63
2024/01/13 01:26:13;;;;;;;;;;;;;;;2.19;90.09;102493.16;5050424;28;19929;-62
2024/01/13 01:28:40;;;;;;;;;;;;;;;2.22;89.26;102500.88;5030183;28;19929;-63
2024/01/13 01:31:07;;;;;;;;;;;;;;;1.97;90.08;102498.03;5048415;28;20311;-63
2024/01/13 01:33:36;;;;;;;;;;;;;;;2.30;90.33;102489.78;5044727;28;19929;-63
2024/01/13 01:36:05;;;;;;;;;;;;;;;2.28;88.62;102489.16;5050935;28;20422;-62
2024/01/13 01:38:32;;;;;;;;;;;;;;;2.02;89.33;102497.41;5047144;28;19951;-62
2024/01/13 01:41:14;;;;;;;;;;;;;;;1.79;91.05;102503.31;5028228;28;19929;-62
2024/01/13 01:43:43;;;;;;;;;;;;;;;1.76;90.75;102498.28;5026678;28;19936;-62
2024/01/13 01:46:10;;;;;;;;;;;;;;;1.79;90.93;102494.31;5026583;28;19929;-62
2024/01/13 01:48:38;;;;;;;;;;;;;;;1.90;90.56;102496.41;5042832;28;20382;-63
2024/01/13 01:51:09;;;;;;;;;;;;;;;1.80;90.44;102501.41;5038463;28;19943;-61
2024/01/13 01:53:38;;;;;;;;;;;;;;;1.96;90.43;102488.22;5058610;28;19929;-62
2024/01/13 01:56:10;;;;;;;;;;;;;;;1.99;90.27;102484.22;5046655;28;19929;-63
2024/01/13 01:58:37;;;;;;;;;;;;;;;2.10;90.21;102480.84;5046172;28;19936;-63
2024/01/13 02:01:04;;;;;;;;;;;;;;;2.01;90.06;102484.84;5052527;28;19929;-62
2024/01/13 02:03:31;;;;;;;;;;;;;;;2.06;90.26;102480.44;5029319;28;19935;-62
2024/01/13 02:06:00;;;;;;;;;;;;;;;2.25;89.91;102476.81;5049994;28;19975;-62
2024/01/13 02:08:28;;;;;;;;;;;;;;;2.10;89.98;102469.97;5048124;28;19933;-62
2024/01/13 02:11:06;;;;;;;;;;;;;;;2.18;89.74;102480.59;5050664;28;19933;-62
2024/01/13 02:13:33;;;;;;;;;;;;;;;2.13;89.87;102480.41;5051374;28;19936;-62
2024/01/13 02:16:00;;;;;;;;;;;;;;;2.18;90.13;102467.00;5053879;28;19929;-62
2024/01/13 02:18:27;;;;;;;;;;;;;;;2.12;89.81;102476.88;5063681;28;19935;-62
2024/01/13 02:21:05;;;;;;;;;;;;;;;1.88;90.75;102466.69;5047390;28;19928;-63
2024/01/13 02:23:34;;;;;;;;;;;;;;;2.18;91.30;102462.41;5050478;28;20413;-63
2024/01/13 02:26:01;;;;;;;;;;;;;;;2.04;89.34;102463.50;5050050;28;19936;-63
2024/01/13 02:28:28;;;;;;;;;;;;;;;1.75;90.93;102463.19;5048614;28;19956;-62
2024/01/13 02:31:12;;;;;;;;;;;;;;;1.92;91.36;102467.09;5052506;28;19971;-63
2024/01/13 02:33:39;;;;;;;;;;;;;;;2.01;90.82;102471.25;5051259;28;19935;-62
2024/01/13 02:36:06;;;;;;;;;;;;;;;1.94;90.38;102465.00;5057926;28;19929;-63
2024/01/13 02:38:33;;;;;;;;;;;;;;;1.96;90.36;102462.91;5071438;28;19929;-62
2024/01/13 02:41:04;;;;;;;;;;;;;;;1.96;90.32;102466.47;5071356;28;19929;-62
2024/01/13 02:43:33;;;;;;;;;;;;;;;1.65;90.65;102462.81;5053734;28;20245;-62
2024/01/13 02:46:00;;;;;;;;;;;;;;;1.82;91.60;102462.13;5049742;28;19928;-62
2024/01/13 02:48:29;;;;;;;;;;;;;;;2.01;91.26;102461.22;5051513;28;19934;-63
2024/01/13 02:51:05;;;;;;;;;;;;;;;2.11;90.31;102464.31;5051608;28;19939;-62
2024/01/13 02:53:33;;;;;;;;;;;;;;;2.27;89.74;102447.53;5062126;28;19944;-63
2024/01/13 02:56:00;;;;;;;;;;;;;;;2.01;90.17;102444.09;5049894;28;19924;-62
2024/01/13 02:58:27;;;;;;;;;;;;;;;2.29;90.34;102442.72;5048884;28;19956;-64
2024/01/13 03:01:09;;;;;;;;;;;;;;;2.10;89.65;102435.50;5051230;28;19947;-63
2024/01/13 03:03:37;;;;;;;;;;;;;;;1.89;89.78;102434.94;5049399;28;19928;-62
2024/01/13 03:06:06;;;;;;;;;;;;;;;1.40;91.76;102438.19;5051410;28;20383;-63
2024/01/13 03:08:34;;;;;;;;;;;;;;;1.28;92.91;102434.47;5051181;28;19929;-64
2024/01/13 03:11:08;;;;;;;;;;;;;;;1.36;93.78;102430.69;5035712;28;19929;-63
2024/01/13 03:13:36;;;;;;;;;;;;;;;1.81;93.02;102435.19;5041545;28;19929;-63
2024/01/13 03:16:04;;;;;;;;;;;;;;;2.01;90.81;102425.91;5069578;28;19935;-64
2024/01/13 03:18:31;;;;;;;;;;;;;;;1.95;90.41;102418.59;5038468;28;19937;-63
2024/01/13 03:21:07;;;;;;;;;;;;;;;2.01;89.65;102412.31;5064048;28;20646;-62
2024/01/13 03:23:35;;;;;;;;;;;;;;;1.93;89.83;102414.44;5069412;28;19936;-63
2024/01/13 03:26:03;;;;;;;;;;;;;;;1.98;90.05;102406.47;5030538;28;19928;-62
2024/01/13 03:28:30;;;;;;;;;;;;;;;2.00;89.51;102401.66;5044515;28;20411;-63
2024/01/13 03:31:08;;;;;;;;;;;;;;;1.87;89.86;102399.84;5028987;28;19929;-62
2024/01/13 03:33:36;;;;;;;;;;;;;;;1.95;90.11;102393.34;5028983;28;20281;-62
2024/01/13 03:36:04;;;;;;;;;;;;;;;1.96;90.14;102395.84;5059082;28;19928;-62
2024/01/13 03:38:31;;;;;;;;;;;;;;;2.01;89.64;102390.59;5068458;28;19929;-63
2024/01/13 03:41:08;;;;;;;;;;;;;;;2.37;88.90;102375.53;5069906;28;19932;-63
2024/01/13 03:43:35;;;;;;;;;;;;;;;2.26;87.56;102368.91;5069915;28;20384;-62
2024/01/13 03:46:03;;;;;;;;;;;;;;;2.01;88.34;102366.13;5050339;28;19936;-62
2024/01/13 03:48:30;;;;;;;;;;;;;;;1.97;88.65;102356.72;5048309;28;19987;-62
2024/01/13 03:50:59;;;;;;;;;;;;;;;2.05;88.82;102355.66;5066493;28;19975;-62
2024/01/13 03:53:28;;;;;;;;;;;;;;;2.06;88.76;102360.88;5065033;28;19935;-63
2024/01/13 03:55:56;;;;;;;;;;;;;;;2.25;88.56;102365.34;5064722;28;19943;-63
2024/01/13 03:58:23;;;;;;;;;;;;;;;2.25;87.77;102361.78;5046663;28;19933;-63
2024/01/13 04:00:50;;;;;;;;;;;;;;;2.20;88.00;102367.06;5064520;28;19928;-62
2024/01/13 04:03:20;;;;;;;;;;;;;;;2.39;87.73;102357.94;5064698;28;19933;-62
2024/01/13 04:05:47;;;;;;;;;;;;;;;2.39;86.74;102360.66;5049621;28;19929;-62
2024/01/13 04:08:15;;;;;;;;;;;;;;;2.21;87.07;102358.69;5049651;28;19929;-62
2024/01/13 04:10:42;;;;;;;;;;;;;;;2.17;87.99;102341.16;5049199;28;19935;-63
2024/01/13 04:13:09;;;;;;;;;;;;;;;2.06;87.82;102344.56;5046952;28;20158;-61
2024/01/13 04:15:36;;;;;;;;;;;;;;;2.29;88.08;102339.41;5050236;28;19935;-61
2024/01/13 04:18:04;;;;;;;;;;;;;;;1.94;88.49;102345.47;5069829;28;19928;-62
2024/01/13 04:20:31;;;;;;;;;;;;;;;1.82;89.38;102347.19;5066740;28;20443;-62
2024/01/13 04:22:58;;;;;;;;;;;;;;;1.88;89.33;102339.00;5049756;28;20364;-62
2024/01/13 04:25:25;;;;;;;;;;;;;;;1.66;89.93;102337.66;5049412;28;20742;-63
2024/01/13 04:27:54;;;;;;;;;;;;;;;1.72;90.32;102341.41;5047847;28;19935;-61
2024/01/13 04:30:22;;;;;;;;;;;;;;;1.90;89.52;102346.97;5047037;28;19929;-62
2024/01/13 04:32:50;;;;;;;;;;;;;;;2.24;89.03;102341.97;5047454;28;19928;-63
2024/01/13 04:35:17;;;;;;;;;;;;;;;2.18;87.95;102342.81;5049569;28;19929;-63
2024/01/13 04:37:44;;;;;;;;;;;;;;;2.14;87.53;102349.72;5068674;28;19928;-62
2024/01/13 04:40:14;;;;;;;;;;;;;;;2.16;88.24;102344.09;5067928;28;19935;-62
2024/01/13 04:42:41;;;;;;;;;;;;;;;2.26;87.70;102342.56;5069039;28;19928;-63
2024/01/13 04:45:09;;;;;;;;;;;;;;;2.32;87.60;102337.31;5060905;28;19929;-61
2024/01/13 04:47:36;;;;;;;;;;;;;;;1.96;87.69;102335.22;5043980;28;19925;-62
2024/01/13 04:50:03;;;;;;;;;;;;;;;1.90;88.14;102339.63;5047883;28;19951;-62
2024/01/13 04:52:30;;;;;;;;;;;;;;;1.41;89.04;102338.59;5066951;28;19928;-62
2024/01/13 04:54:58;;;;;;;;;;;;;;;0.85;92.17;102341.00;5051550;28;19940;-64
2024/01/13 04:57:25;;;;;;;;;;;;;;;1.20;94.39;102331.56;5048619;28;19928;-62
2024/01/13 04:59:52;;;;;;;;;;;;;;;1.05;92.81;102331.78;5048640;28;19936;-62
2024/01/13 05:02:19;;;;;;;;;;;;;;;1.11;93.27;102328.25;5046772;28;20343;-62
2024/01/13 05:04:46;;;;;;;;;;;;;;;1.32;92.71;102318.16;5047766;28;20328;-62
2024/01/13 05:07:13;;;;;;;;;;;;;;;1.06;92.67;102332.63;5048177;28;19939;-63
2024/01/13 05:09:40;;;;;;;;;;;;;;;1.09;92.85;102326.78;5038783;28;19929;-62
2024/01/13 05:12:08;;;;;;;;;;;;;;;1.20;93.34;102314.44;5027577;28;19929;-62
2024/01/13 05:14:35;;;;;;;;;;;;;;;1.59;92.32;102314.28;5034780;28;19928;-62
2024/01/13 05:17:04;;;;;;;;;;;;;;;1.51;91.08;102317.25;5057029;28;19940;-62
2024/01/13 05:19:32;;;;;;;;;;;;;;;1.73;90.54;102315.88;5040760;28;20601;-66
2024/01/13 05:21:59;;;;;;;;;;;;;;;1.76;89.81;102310.84;5049869;28;19932;-63
2024/01/13 05:24:26;;;;;;;;;;;;;;;1.61;89.81;102304.88;5048949;28;20416;-63
2024/01/13 05:26:54;;;;;;;;;;;;;;;1.65;90.67;102308.00;5047426;28;20275;-63
2024/01/13 05:29:22;;;;;;;;;;;;;;;1.72;90.44;102298.78;5067680;28;20316;-63
2024/01/13 05:32:11;;;;;;;;;;;;;;;1.45;90.69;102293.69;5067761;28;19929;-56
2024/01/13 05:35:03;;;;;;;;;;;;;;;1.39;90.17;102292.66;5031823;28;19929;-55
2024/01/13 05:38:11;;;;;;;;;;;;;;;1.68;89.90;102283.13;5043698;28;19968;-59
2024/01/13 05:40:47;;;;;;;;;;;;;;;1.53;89.56;102283.41;5043889;28;19929;-56
2024/01/13 05:43:19;;;;;;;;;;;;;;;1.49;90.16;102281.34;5050185;28;19928;-55
2024/01/13 05:45:57;;;;;;;;;;;;;;;1.70;89.69;102278.31;5051424;28;19929;-56
2024/01/13 05:48:30;;;;;;;;;;;;;;;1.83;88.92;102270.09;5029019;28;20411;-55
2024/01/13 05:51:02;;;;;;;;;;;;;;;1.66;89.58;102277.91;5062903;28;19936;-57
2024/01/13 05:53:29;;;;;;;;;;;;;;;1.64;89.27;102277.28;5053276;28;20289;-56
2024/01/13 05:55:56;;;;;;;;;;;;;;;1.53;90.85;102272.56;5047417;28;19929;-57
2024/01/13 05:58:24;;;;;;;;;;;;;;;1.74;90.71;102274.13;5047434;28;19928;-58
2024/01/13 06:00:51;;;;;;;;;;;;;;;1.74;90.53;102266.81;5044561;28;19929;-57
2024/01/13 06:03:19;;;;;;;;;;;;;;;1.86;90.24;102265.06;5047250;28;19929;-60
2024/01/13 06:05:46;;;;;;;;;;;;;;;1.96;89.14;102261.84;5045272;28;19928;-59
2024/01/13 06:08:13;;;;;;;;;;;;;;;1.99;88.80;102261.41;5044799;28;19940;-57
2024/01/13 06:10:40;;;;;;;;;;;;;;;1.78;89.38;102262.59;5045559;28;19935;-55
2024/01/13 06:13:07;;;;;;;;;;;;;;;1.76;89.45;102264.69;5044909;28;19940;-58
2024/01/13 06:15:34;;;;;;;;;;;;;;;1.87;89.65;102255.00;5047349;28;19929;-55
2024/01/13 06:18:01;;;;;;;;;;;;;;;1.89;89.37;102253.75;5054654;28;19936;-62
2024/01/13 06:20:29;;;;;;;;;;;;;;;1.84;89.62;102245.44;5049665;28;19928;-55
2024/01/13 06:22:56;;;;;;;;;;;;;;;1.95;88.83;102239.28;5049950;28;19929;-62
2024/01/13 06:25:23;;;;;;;;;;;;;;;1.72;89.11;102244.47;5048674;28;19936;-58
2024/01/13 06:27:50;;;;;;;;;;;;;;;1.92;89.33;102238.88;5044723;28;20422;-55
2024/01/13 06:30:17;;;;;;;;;;;;;;;1.87;89.31;102236.84;5057663;28;20555;-58
2024/01/13 06:32:44;;;;;;;;;;;;;;;1.93;88.87;102235.97;5056965;28;19955;-63
2024/01/13 06:35:11;;;;;;;;;;;;;;;1.82;89.41;102228.50;5044540;28;19928;-65
2024/01/13 06:37:38;;;;;;;;;;;;;;;1.79;89.34;102239.81;5045518;28;19940;-63
2024/01/13 06:40:06;;;;;;;;;;;;;;;1.88;89.27;102243.09;5025129;28;19929;-62
2024/01/13 06:42:34;;;;;;;;;;;;;;;1.74;89.87;102234.22;5026602;28;19929;-63
2024/01/13 06:45:01;;;;;;;;;;;;;;;1.95;89.70;102244.72;5047462;28;20442;-63
2024/01/13 06:47:29;;;;;;;;;;;;;;;2.00;88.94;102244.91;5049666;28;19940;-63
2024/01/13 06:49:56;;;;;;;;;;;;;;;1.82;88.92;102250.25;5052752;28;19929;-64
2024/01/13 06:52:23;;;;;;;;;;;;;;;1.70;89.03;102240.28;5046983;28;19945;-62
2024/01/13 06:54:50;;;;;;;;;;;;;;;1.88;89.38;102238.50;5050588;28;19928;-63
2024/01/13 06:57:18;;;;;;;;;;;;;;;1.91;89.18;102248.94;5050854;28;20585;-63
2024/01/13 06:59:45;;;;;;;;;;;;;;;1.98;88.96;102246.16;5049440;28;19939;-63
2024/01/13 07:02:12;;;;;;;;;;;;;;;2.03;88.62;102247.19;5048095;28;19935;-64
2024/01/13 07:04:47;;;;;;;;;;;;;;;1.82;88.84;102242.09;5049025;28;19947;-63
2024/01/13 07:07:15;;;;;;;;;;;;;;;1.86;88.92;102240.63;5048402;28;19936;-65
2024/01/13 07:09:42;;;;;;;;;;;;;;;1.97;89.02;102242.59;5049762;28;19929;-62
2024/01/13 07:12:09;;;;;;;;;;;;;;;2.19;88.52;102241.22;5032346;28;19929;-62
2024/01/13 07:14:36;;;;;;;;;;;;;;;2.18;87.46;102234.09;5042118;28;20315;-63
2024/01/13 07:17:03;;;;;;;;;;;;;;;1.94;87.55;102240.34;5057291;28;19929;-63
2024/01/13 07:19:31;;;;;;;;;;;;;;;2.05;88.07;102228.78;5068705;28;19933;-63
2024/01/13 07:21:58;;;;;;;;;;;;;;;2.06;87.59;102237.75;5069278;28;19928;-63
2024/01/13 07:24:25;;;;;;;;;;;;;;;2.14;87.33;102237.50;5054634;28;19936;-62
2024/01/13 07:26:52;;;;;;;;;;;;;;;2.14;87.73;102234.75;5050199;28;19929;-62
2024/01/13 07:29:21;;;;;;;;;;;;;;;1.90;87.96;102235.56;5048855;28;20380;-63
2024/01/13 07:31:48;;;;;;;;;;;;;;;1.82;88.58;102231.22;5048422;28;19929;-63
2024/01/13 07:34:15;;;;;;;;;;;;;;;1.53;90.31;102234.53;5050399;28;19929;-64
2024/01/13 07:36:42;;;;;;;;;;;;;;;1.56;90.51;102231.38;5057020;28;19935;-62
2024/01/13 07:39:16;;;;;;;;;;;;;;;1.40;91.41;102226.44;5050184;28;19928;-64
2024/01/13 07:41:44;;;;;;;;;;;;;;;1.64;91.92;102225.69;5056500;28;19929;-63
2024/01/13 07:44:11;;;;;;;;;;;;;;;1.70;91.05;102227.56;5047921;28;19928;-63
2024/01/13 07:46:40;;;;;;;;;;;;;;;1.78;91.07;102227.28;5041050;28;20198;-63
2024/01/13 07:49:07;;;;;;;;;;;;;;;1.64;90.28;102228.41;5043031;28;19936;-63
2024/01/13 07:51:35;;;;;;;;;;;;;;;1.72;90.75;102228.16;5043397;28;20387;-63
2024/01/13 07:54:02;;;;;;;;;;;;;;;1.77;90.74;102219.34;5043571;28;20167;-63
2024/01/13 07:56:29;;;;;;;;;;;;;;;1.72;90.60;102217.31;5041907;28;19936;-64
2024/01/13 07:58:56;;;;;;;;;;;;;;;1.72;90.45;102225.44;5047770;28;20407;-63
2024/01/13 08:01:24;;;;;;;;;;;;;;;1.64;90.84;102220.25;5049138;28;20058;-63
2024/01/13 08:04:04;;;;;;;;;;;;;;;1.85;90.70;102216.34;5037987;28;19928;-64
2024/01/13 08:06:31;;;;;;;;;;;;;;;1.71;90.86;102214.81;5041026;28;19933;-65
2024/01/13 08:08:59;;;;;;;;;;;;;;;1.48;90.94;102209.94;5026920;28;19936;-65
2024/01/13 08:11:26;;;;;;;;;;;;;;;1.40;91.42;102207.44;5041725;28;19928;-63
2024/01/13 08:14:05;;;;;;;;;;;;;;;1.47;91.37;102197.38;5042703;28;19928;-62
2024/01/13 08:16:32;;;;;;;;;;;;;;;1.79;90.83;102215.38;5039930;28;20474;-63
2024/01/13 08:19:01;;;;;;;;;;;;;;;2.03;89.20;102206.41;5038833;28;19952;-63
2024/01/13 08:21:29;;;;;;;;;;;;;;;1.75;88.16;102207.88;5043115;28;19935;-62
2024/01/13 08:24:06;;;;;;;;;;;;;;;1.77;87.88;102209.31;5039794;28;19944;-64
2024/01/13 08:26:34;;;;;;;;;;;;;;;1.62;88.22;102203.34;5038990;28;19929;-62
2024/01/13 08:29:02;;;;;;;;;;;;;;;1.56;88.00;102196.09;5042889;28;20308;-62
2024/01/13 08:31:29;;;;;;;;;;;;;;;1.47;88.52;102196.56;5040723;28;20404;-63
2024/01/13 08:34:10;;;;;;;;;;;;;;;1.79;88.60;102198.25;5041450;28;20327;-63
2024/01/13 08:36:42;;;;;;;;;;;;;;;1.76;88.00;102209.56;5045667;28;19936;-64
2024/01/13 08:39:32;;;;;;;;;;;;;;;1.56;87.36;102198.81;5046132;28;20617;-62
2024/01/13 08:41:59;;;;;;;;;;;;;;;1.66;87.24;102195.59;5047820;28;19960;-63
2024/01/13 08:44:27;;;;;;;;;;;;;;;1.49;87.84;102197.16;5040761;28;19936;-62
2024/01/13 08:46:54;;;;;;;;;;;;;;;1.47;87.88;102205.53;5045817;28;19935;-63
2024/01/13 08:49:21;;;;;;;;;;;;;;;1.33;87.84;102193.09;5042035;28;19929;-63
2024/01/13 08:51:49;;;;;;;;;;;;;;;1.66;87.32;102192.88;5036495;28;19947;-62
2024/01/13 08:54:16;;;;;;;;;;;;;;;1.74;87.12;102206.22;5038735;28;19929;-64
2024/01/13 08:56:44;;;;;;;;;;;;;;;1.79;86.54;102218.09;5045702;28;19931;-62
2024/01/13 08:59:11;;;;;;;;;;;;;;;2.05;85.47;102217.91;5050332;28;19935;-63
2024/01/13 09:01:38;;;;;;;;;;;;;;;1.71;85.21;102212.91;5047848;28;19936;-63
2024/01/13 09:04:07;;;;;;;;;;;;;;;1.96;85.16;102216.50;5043973;28;19933;-62
2024/01/13 09:06:35;;;;;;;;;;;;;;;2.14;84.05;102215.75;5036415;28;19933;-62
2024/01/13 09:09:02;;;;;;;;;;;;;;;1.77;83.93;102220.19;5047942;28;19963;-65
2024/01/13 09:11:29;;;;;;;;;;;;;;;1.63;84.59;102224.03;5046012;28;19924;-65
2024/01/13 09:14:09;;;;;;;;;;;;;;;1.66;85.60;102234.47;5044788;28;19924;-63
2024/01/13 09:16:36;;;;;;;;;;;;;;;1.62;85.70;102241.38;5045668;28;20444;-62
2024/01/13 09:19:04;;;;;;;;;;;;;;;1.52;86.35;102249.16;5046902;28;19925;-62
2024/01/13 09:21:35;;;;;;;;;;;;;;;1.58;86.80;102245.59;5047579;28;20539;-64
2024/01/13 09:24:10;;;;;;;;;;;;;;;1.78;87.04;102240.84;5046342;28;19929;-63
2024/01/13 09:26:41;;;;;;;;;;;;;;;1.89;85.99;102245.59;5060154;28;19932;-62
2024/01/13 09:29:12;;;;;;;;;;;;;;;1.96;85.41;102237.41;5045032;28;20023;-64
2024/01/13 09:31:39;;;;;;;;;;;;;;;2.00;85.25;102231.31;5046624;28;19931;-62
2024/01/13 09:34:08;;;;;;;;;;;;;;;1.99;85.17;102240.50;5044483;28;19932;-62
2024/01/13 09:36:41;;;;;;;;;;;;;;;1.80;85.98;102218.91;5047443;28;20295;-63
2024/01/13 09:39:14;;;;;;;;;;;;;;;2.05;85.99;102228.78;5057152;28;19932;-63
2024/01/13 09:41:42;;;;;;;;;;;;;;;2.15;85.39;102231.81;5045072;28;19928;-65
2024/01/13 09:44:15;;;;;;;;;;;;;;;1.84;85.12;102231.00;5053855;28;19929;-62
2024/01/13 09:46:42;;;;;;;;;;;;;;;1.47;86.21;102234.56;5044664;28;19928;-61
2024/01/13 09:49:12;;;;;;;;;;;;;;;1.92;86.82;102230.72;5026259;28;19928;-63
2024/01/13 09:51:40;;;;;;;;;;;;;;;1.98;85.58;102236.13;5041302;28;19935;-63
2024/01/13 09:54:26;;;;;;;;;;;;;;;2.02;85.78;102247.41;5040898;28;19942;-63
2024/01/13 09:56:57;;;;;;;;;;;;;;;1.96;85.21;102245.56;5041950;28;19940;-63
2024/01/13 09:59:29;;;;;;;;;;;;;;;2.07;84.82;102255.72;5042314;28;19925;-63
2024/01/13 10:02:02;;;;;;;;;;;;;;;1.90;84.90;102269.00;5040824;28;19940;-63
2024/01/13 10:04:36;;;;;;;;;;;;;;;1.97;85.08;102264.34;5045736;28;19929;-61
2024/01/13 10:07:04;;;;;;;;;;;;;;;2.06;85.10;102257.59;5041458;28;19933;-63
2024/01/13 10:09:31;;;;;;;;;;;;;;;2.06;85.22;102254.88;5048971;28;19929;-61
2024/01/13 10:12:08;;;;;;;;;;;;;;;2.00;84.53;102258.50;5052337;28;19929;-61
2024/01/13 10:14:39;;;;;;;;;;;;;;;1.87;85.01;102257.72;5044919;28;19929;-63
2024/01/13 10:17:09;;;;;;;;;;;;;;;1.97;84.85;102258.91;5052470;28;19928;-59
2024/01/13 10:19:40;;;;;;;;;;;;;;;2.11;84.16;102257.78;5033346;28;19928;-61
2024/01/13 10:22:08;;;;;;;;;;;;;;;2.22;84.17;102246.19;5050795;28;19929;-65
2024/01/13 10:24:36;;;;;;;;;;;;;;;2.41;83.43;102246.25;5054713;28;20792;-61
2024/01/13 10:27:04;;;;;;;;;;;;;;;2.26;82.60;102238.44;5057337;28;20815;-60
2024/01/13 10:29:32;;;;;;;;;;;;;;;2.35;82.19;102241.69;5060377;28;19968;-61
2024/01/13 10:32:03;;;;;;;;;;;;;;;2.41;82.10;102229.94;5057223;28;19936;-67
2024/01/13 10:34:46;;;;;;;;;;;;;;;2.46;80.93;102227.41;5047133;28;19937;-65
2024/01/13 10:37:13;;;;;;;;;;;;;;;2.15;81.39;102222.81;5054875;28;19932;-67
2024/01/13 10:39:41;;;;;;;;;;;;;;;1.92;82.47;102215.28;5049642;28;19933;-67
2024/01/13 10:42:09;;;;;;;;;;;;;;;1.91;82.75;102218.22;5049897;28;19933;-67
2024/01/13 10:44:41;;;;;;;;;;;;;;;1.74;83.42;102223.34;5046461;28;19936;-67
2024/01/13 10:47:11;;;;;;;;;;;;;;;1.47;83.94;102215.56;5049883;28;20672;-64
2024/01/13 10:49:38;;;;;;;;;;;;;;;1.37;85.24;102212.47;5061150;28;19944;-60
2024/01/13 10:52:06;;;;;;;;;;;;;;;1.26;85.20;102200.41;5061325;28;19929;-57
2024/01/13 10:54:33;;;;;;;;;;;;;;;1.62;85.17;102199.81;5043290;28;19936;-59
2024/01/13 10:57:03;;;;;;;;;;;;;;;1.68;84.42;102193.50;5057803;28;19931;-58
2024/01/13 10:59:35;;;;;;;;;;;;;;;1.90;83.34;102192.09;5064546;28;19928;-62
2024/01/13 11:02:03;;;;;;;;;;;;;;;1.81;83.47;102183.41;5048208;28;19932;-59
2024/01/13 11:04:30;;;;;;;;;;;;;;;1.92;82.58;102171.81;5050187;28;19951;-58
2024/01/13 11:07:00;;;;;;;;;;;;;;;2.03;82.22;102159.38;5054101;28;19928;-55
2024/01/13 11:09:30;;;;;;;;;;;;;;;2.01;81.32;102156.88;5043236;28;19943;-56
2024/01/13 11:12:03;;;;;;;;;;;;;;;1.99;81.73;102166.31;5046813;28;19939;-57
2024/01/13 11:14:42;;;;;;;;;;;;;;;2.15;81.17;102158.44;5053400;28;19925;-56
2024/01/13 11:17:10;;;;;;;;;;;;;;;2.06;81.18;102153.50;5044588;28;20594;-60
2024/01/13 11:19:36;;;;;;;;;;;;;;;2.29;80.70;102143.66;5048557;28;19925;-62
2024/01/13 11:22:33;;;;;;;;;;;;;;;2.07;79.76;102147.03;5045411;28;21600;-61
2024/01/13 11:25:25;;;;;;;;;;;;;;;2.04;79.85;102140.13;5047431;28;19925;-59
2024/01/13 11:27:57;;;;;;;;;;;;;;;2.00;80.22;102128.06;5048610;28;19928;-61
2024/01/13 11:30:30;;;;;;;;;;;;;;;2.00;81.09;102122.63;5050376;28;19936;-58
2024/01/13 11:33:01;;;;;;;;;;;;;;;2.06;81.40;102118.16;5050472;28;19936;-62
2024/01/13 11:35:32;;;;;;;;;;;;;;;1.91;82.57;102131.28;5051066;28;19925;-57
2024/01/13 11:38:00;;;;;;;;;;;;;;;1.77;82.26;102114.25;5039505;28;20501;-58
2024/01/13 11:40:29;;;;;;;;;;;;;;;2.02;82.23;102116.97;5053165;28;20010;-58
2024/01/13 11:43:00;;;;;;;;;;;;;;;1.91;81.39;102123.13;5067563;28;20547;-58
2024/01/13 11:45:35;;;;;;;;;;;;;;;1.71;81.20;102112.41;5047595;28;19925;-57
2024/01/13 11:48:25;;;;;;;;;;;;;;;1.84;82.41;102106.88;5049517;28;19924;-57
2024/01/13 11:50:54;;;;;;;;;;;;;;;2.06;80.46;102110.00;5051479;28;19932;-62
2024/01/13 11:53:31;;;;;;;;;;;;;;;1.54;81.63;102096.88;5050502;28;19940;-64
2024/01/13 11:55:59;;;;;;;;;;;;;;;1.63;82.10;102095.56;5052584;28;19936;-64
2024/01/13 11:58:26;;;;;;;;;;;;;;;1.62;81.98;102091.19;5050722;28;19929;-64
2024/01/13 12:00:53;;;;;;;;;;;;;;;1.84;81.95;102095.19;5045901;28;19929;-62
2024/01/13 12:03:21;;;;;;;;;;;;;;;1.97;80.91;102090.47;5054516;28;19924;-63
2024/01/13 12:05:48;;;;;;;;;;;;;;;1.95;80.67;102089.84;5050769;28;20565;-63
2024/01/13 12:08:15;;;;;;;;;;;;;;;1.77;80.91;102078.09;5048980;28;19943;-64
2024/01/13 12:10:42;;;;;;;;;;;;;;;1.85;80.71;102072.38;5049380;28;20407;-64
2024/01/13 12:13:16;;;;;;;;;;;;;;;1.98;80.62;102080.44;5045016;28;19929;-64
2024/01/13 12:15:46;;;;;;;;;;;;;;;1.81;79.97;102069.31;5043508;28;19925;-64
2024/01/13 12:18:31;;;;;;;;;;;;;;;2.09;78.96;102082.41;5048453;28;19933;-63
2024/01/13 12:21:00;;;;;;;;;;;;;;;2.02;79.25;102071.59;5044009;28;20024;-62
2024/01/13 12:23:28;;;;;;;;;;;;;;;1.80;79.43;102069.50;5048238;28;19925;-62
2024/01/13 12:25:56;;;;;;;;;;;;;;;1.80;80.22;102059.47;5037268;28;20307;-63
2024/01/13 12:28:37;;;;;;;;;;;;;;;1.79;80.81;102048.84;5047813;28;19932;-66
2024/01/13 12:31:05;;;;;;;;;;;;;;;2.11;81.35;102053.13;5031882;28;20387;-64
2024/01/13 12:33:33;;;;;;;;;;;;;;;1.95;80.20;102051.81;5045871;28;20607;-62
2024/01/13 12:36:18;;;;;;;;;;;;;;;1.89;80.24;102058.16;5042398;28;19928;-64
2024/01/13 12:39:23;;;;;;;;;;;;;;;1.94;80.13;102052.88;5043328;28;20466;-63
2024/01/13 12:41:51;;;;;;;;;;;;;;;1.60;80.03;102039.84;5063729;28;19955;-63
2024/01/13 12:44:24;;;;;;;;;;;;;;;1.54;81.09;102024.41;5049783;28;19960;-62
2024/01/13 12:46:55;;;;;;;;;;;;;;;1.53;81.67;102017.34;5044445;28;19925;-62
2024/01/13 12:49:23;;;;;;;;;;;;;;;1.35;81.43;102022.69;5043951;28;20035;-63
2024/01/13 12:51:51;;;;;;;;;;;;;;;1.32;82.39;102020.44;5043039;28;20322;-62
2024/01/13 12:54:19;;;;;;;;;;;;;;;1.65;81.98;102018.28;5046595;28;19935;-62
2024/01/13 12:56:46;;;;;;;;;;;;;;;1.63;81.66;102005.97;5045608;28;19925;-62
2024/01/13 12:59:18;;;;;;;;;;;;;;;1.61;81.96;102003.47;5046711;28;19936;-62
2024/01/13 13:01:46;;;;;;;;;;;;;;;1.81;82.34;101995.97;5044602;28;19933;-63